Time;durP1;ratioP1;P1;durP2;ratioP2;P2;SDS_P1;SDS_P2;PMS_P1;PMS_P2;Temp;Humidity;BMP_temperature;BMP_pressure;BME280_temperature;BME280_humidity;BME280_pressure;Samples;Min_cycle;Max_cycle;Signal;HPM_P1;HPM_P2
2023/03/15 00:01:45;;;;;;;3.97;1.40;;;1.80;99.90;;;;;;5051708;28;20394;-82
2023/03/15 00:04:11;;;;;;;4.03;1.45;;;2.50;99.90;;;;;;5050912;28;20105;-82
2023/03/15 00:06:37;;;;;;;5.70;1.40;;;1.80;99.90;;;;;;5000977;28;20370;-82
2023/03/15 00:09:03;;;;;;;3.90;1.70;;;1.90;99.90;;;;;;5033606;28;20098;-81
2023/03/15 00:11:29;;;;;;;3.10;1.20;;;1.90;99.90;;;;;;5032477;28;20037;-82
2023/03/15 00:14:01;;;;;;;3.75;1.40;;;2.00;99.90;;;;;;5033206;28;20041;-81
2023/03/15 00:16:26;;;;;;;4.95;1.67;;;1.90;99.90;;;;;;5032472;28;20057;-81
2023/03/15 00:18:53;;;;;;;3.35;1.50;;;2.80;99.90;;;;;;5037517;28;20101;-81
2023/03/15 00:21:20;;;;;;;4.22;1.73;;;2.10;99.90;;;;;;5033993;28;20079;-82
2023/03/15 00:23:46;;;;;;;4.68;1.70;;;1.90;99.90;;;;;;5020085;28;20523;-81
2023/03/15 00:26:12;;;;;;;4.10;1.52;;;2.00;99.90;;;;;;4997094;28;20064;-82
2023/03/15 00:28:37;;;;;;;3.65;1.60;;;2.00;99.90;;;;;;5046318;28;20040;-83
2023/03/15 00:31:15;;;;;;;3.95;1.48;;;1.90;99.90;;;;;;5045870;28;20052;-82
2023/03/15 00:33:41;;;;;;;4.22;1.52;;;2.00;99.90;;;;;;5044426;28;20036;-82
2023/03/15 00:36:09;;;;;;;3.35;1.50;;;2.00;99.90;;;;;;5033004;28;20045;-82
2023/03/15 00:38:36;;;;;;;2.47;1.35;;;2.00;99.90;;;;;;5040626;28;20040;-84
2023/03/15 00:41:14;;;;;;;2.33;1.15;;;2.00;99.90;;;;;;5033107;28;20070;-84
2023/03/15 00:43:40;;;;;;;3.03;1.33;;;2.50;99.90;;;;;;5033212;28;20429;-84
2023/03/15 00:46:07;;;;;;;2.38;1.08;;;2.00;99.90;;;;;;5065485;28;20493;-85
2023/03/15 00:48:36;;;;;;;2.53;1.00;;;2.60;99.90;;;;;;5066435;28;20386;-82
2023/03/15 00:51:08;;;;;;;2.72;1.20;;;2.10;99.90;;;;;;5033006;28;20456;-83
2023/03/15 00:53:34;;;;;;;2.30;1.15;;;1.90;99.90;;;;;;5032882;28;20486;-84
2023/03/15 00:56:16;;;;;;;2.10;0.95;;;1.90;99.90;;;;;;5033290;28;20049;-84
2023/03/15 00:58:42;;;;;;;2.67;1.17;;;1.80;99.90;;;;;;5065915;28;20051;-86
2023/03/15 01:01:14;;;;;;;1.90;1.02;;;1.80;99.90;;;;;;5032232;28;20099;-84
2023/03/15 01:03:40;;;;;;;3.85;1.70;;;1.80;99.90;;;;;;5066434;28;20088;-84
2023/03/15 01:06:12;;;;;;;2.50;1.00;;;1.90;99.90;;;;;;5032562;28;20409;-83
2023/03/15 01:08:38;;;;;;;2.72;1.38;;;1.90;99.90;;;;;;5033118;28;20045;-84
2023/03/15 01:11:06;;;;;;;3.17;1.08;;;1.90;99.90;;;;;;5032673;28;20749;-84
2023/03/15 01:13:32;;;;;;;1.65;0.90;;;2.10;99.90;;;;;;5032337;28;20124;-85
2023/03/15 01:15:58;;;;;;;3.05;0.95;;;2.10;99.90;;;;;;5016040;28;20055;-84
2023/03/15 01:18:24;;;;;;;2.45;0.90;;;1.90;99.90;;;;;;5061787;28;20478;-85
2023/03/15 01:20:50;;;;;;;2.05;0.95;;;1.80;99.90;;;;;;5013168;28;20060;-84
2023/03/15 01:23:15;;;;;;;1.60;0.90;;;2.10;99.90;;;;;;5013402;28;20136;-85
2023/03/15 01:25:41;;;;;;;2.33;1.00;;;1.90;99.90;;;;;;5019944;28;20910;-84
2023/03/15 01:28:07;;;;;;;4.65;1.10;;;2.10;99.90;;;;;;5036792;28;20048;-84
2023/03/15 01:30:33;;;;;;;3.50;1.13;;;1.70;99.90;;;;;;5036536;28;20454;-85
2023/03/15 01:32:59;;;;;;;1.50;0.80;;;1.70;99.90;;;;;;5020257;28;20114;-85
2023/03/15 01:35:25;;;;;;;4.18;1.05;;;2.10;99.90;;;;;;5037097;28;20041;-83
2023/03/15 01:37:51;;;;;;;1.88;0.80;;;1.60;99.90;;;;;;5015837;28;20071;-83
2023/03/15 01:40:17;;;;;;;3.08;0.98;;;1.60;99.90;;;;;;5019467;28;20092;-83
2023/03/15 01:43:10;;;;;;;3.03;1.45;;;1.50;99.90;;;;;;5034542;28;20080;-84
2023/03/15 01:46:00;;;;;;;4.85;1.08;;;1.50;99.90;;;;;;5044755;28;20064;-84
2023/03/15 01:49:04;;;;;;;2.40;0.88;;;1.50;99.90;;;;;;5026740;28;20053;-83
2023/03/15 01:51:40;;;;;;;2.45;0.90;;;1.50;99.90;;;;;;5017674;28;20504;-83
2023/03/15 01:54:15;;;;;;;2.55;1.05;;;1.80;99.90;;;;;;5036452;28;20157;-83
2023/03/15 01:56:49;;;;;;;2.38;1.08;;;1.30;99.90;;;;;;5036595;28;20414;-83
2023/03/15 01:59:30;;;;;;;5.18;1.15;;;1.30;99.90;;;;;;5036301;28;20053;-84
2023/03/15 02:01:57;;;;;;;2.70;1.20;;;1.70;99.90;;;;;;5036656;28;20123;-83
2023/03/15 02:04:35;;;;;;;3.42;1.33;;;1.20;99.90;;;;;;5036419;28;20088;-83
2023/03/15 02:07:02;;;;;;;2.53;0.80;;;1.20;99.90;;;;;;5053982;28;20087;-83
2023/03/15 02:09:51;;;;;;;2.75;1.00;;;1.10;99.90;;;;;;5036428;28;20056;-82
2023/03/15 02:12:17;;;;;;;4.93;1.25;;;1.80;99.90;;;;;;5050464;28;20053;-81
2023/03/15 02:14:44;;;;;;;1.92;0.90;;;1.10;99.90;;;;;;5033108;28;20059;-81
2023/03/15 02:17:10;;;;;;;2.97;1.10;;;1.00;99.90;;;;;;5056541;28;20486;-81
2023/03/15 02:20:26;;;;;;;2.72;2.10;;;1.90;99.90;;;;;;5050212;28;20048;-81
2023/03/15 02:23:04;;;;;;;3.53;1.10;;;1.10;99.90;;;;;;4995878;28;20064;-82
2023/03/15 02:25:38;;;;;;;4.50;1.15;;;2.20;99.90;;;;;;5036191;28;20059;-82
2023/03/15 02:28:07;;;;;;;4.05;1.20;;;1.30;99.90;;;;;;5038435;28;20071;-81
2023/03/15 02:30:34;;;;;;;5.85;1.10;;;1.70;99.90;;;;;;5055906;28;20044;-82
2023/03/15 02:33:02;;;;;;;5.35;1.58;;;1.30;99.90;;;;;;5055378;28;20478;-82
2023/03/15 02:35:30;;;;;;;3.55;1.13;;;1.40;99.90;;;;;;5055644;28;20044;-81
2023/03/15 02:37:57;;;;;;;4.53;1.25;;;1.40;99.90;;;;;;5068029;28;20044;-82
2023/03/15 02:40:26;;;;;;;2.72;0.90;;;1.40;99.90;;;;;;5032184;28;20045;-81
2023/03/15 02:42:56;;;;;;;4.85;1.00;;;1.40;99.90;;;;;;5017535;28;20077;-81
2023/03/15 02:45:22;;;;;;;2.78;1.20;;;1.50;99.90;;;;;;5031807;28;20060;-81
2023/03/15 02:47:48;;;;;;;3.05;1.00;;;1.30;99.90;;;;;;5045680;28;20066;-81
2023/03/15 02:50:14;;;;;;;3.75;1.55;;;1.20;99.90;;;;;;5035592;28;20405;-81
2023/03/15 02:52:40;;;;;;;5.30;1.73;;;1.10;99.90;;;;;;5000693;28;20041;-81
2023/03/15 02:55:07;;;;;;;6.20;1.00;;;1.10;99.90;;;;;;5018787;28;20049;-81
2023/03/15 02:57:32;;;;;;;2.15;1.10;;;1.00;99.90;;;;;;5035356;28;20132;-81
2023/03/15 02:59:59;;;;;;;4.97;1.25;;;0.90;99.90;;;;;;5035244;28;20136;-81
2023/03/15 03:02:25;;;;;;;2.42;0.95;;;0.90;99.90;;;;;;5035436;28;20084;-81
2023/03/15 03:04:51;;;;;;;3.50;1.10;;;0.80;99.90;;;;;;5016635;28;20092;-81
2023/03/15 03:07:17;;;;;;;3.42;0.90;;;0.70;99.90;;;;;;5035121;28;20063;-81
2023/03/15 03:09:43;;;;;;;5.13;1.15;;;0.70;99.90;;;;;;5034451;28;20048;-81
2023/03/15 03:12:09;;;;;;;5.07;0.90;;;0.60;99.90;;;;;;5035056;28;20049;-82
2023/03/15 03:14:35;;;;;;;2.92;0.90;;;0.60;99.90;;;;;;5034719;28;20523;-81
2023/03/15 03:17:01;;;;;;;4.30;1.20;;;0.60;99.90;;;;;;5017857;28;20095;-81
2023/03/15 03:19:26;;;;;;;5.70;0.95;;;0.60;99.90;;;;;;5047515;28;20474;-81
2023/03/15 03:21:53;;;;;;;4.00;1.10;;;0.60;99.90;;;;;;5054477;28;20049;-82
2023/03/15 03:24:20;;;;;;;4.13;1.13;;;1.60;99.90;;;;;;5054934;28;20051;-82
2023/03/15 03:26:45;;;;;;;4.43;1.10;;;0.60;99.90;;;;;;5054713;28;20081;-81
2023/03/15 03:29:15;;;;;;;3.50;0.90;;;0.70;99.90;;;;;;5045728;28;20116;-82
2023/03/15 03:31:42;;;;;;;3.83;1.25;;;0.80;99.90;;;;;;5030390;28;20045;-81
2023/03/15 03:34:09;;;;;;;4.28;0.80;;;0.80;99.90;;;;;;5034783;28;20537;-81
2023/03/15 03:36:35;;;;;;;8.55;2.72;;;2.00;99.90;;;;;;5017935;28;20048;-82
2023/03/15 03:39:00;;;;;;;2.08;1.02;;;0.90;99.90;;;;;;5043805;28;20444;-81
2023/03/15 03:41:26;;;;;;;3.00;0.80;;;0.70;99.90;;;;;;5031321;28;20052;-81
2023/03/15 03:43:52;;;;;;;3.65;1.75;;;1.60;99.90;;;;;;5014469;28;20057;-81
2023/03/15 03:46:18;;;;;;;2.30;0.95;;;1.20;99.90;;;;;;5010400;28;20407;-81
2023/03/15 03:48:43;;;;;;;3.35;1.02;;;0.70;99.90;;;;;;5034241;28;20056;-81
2023/03/15 03:51:10;;;;;;;3.97;1.00;;;0.60;99.90;;;;;;5017818;28;20190;-81
2023/03/15 03:53:35;;;;;;;4.28;1.20;;;0.70;99.90;;;;;;5034256;28;20128;-81
2023/03/15 03:56:04;;;;;;;5.18;1.20;;;0.60;99.90;;;;;;5050955;28;20124;-81
2023/03/15 03:58:30;;;;;;;3.55;0.93;;;0.60;99.90;;;;;;5067430;28;20040;-81
2023/03/15 04:00:55;;;;;;;5.10;1.05;;;1.10;99.90;;;;;;5033684;28;20048;-81
2023/03/15 04:03:26;;;;;;;7.18;1.58;;;0.60;99.90;;;;;;5014442;28;20430;-81
2023/03/15 04:05:58;;;;;;;2.63;0.82;;;0.50;99.90;;;;;;5035193;28;20127;-81
2023/03/15 04:08:26;;;;;;;1.77;0.80;;;0.40;99.90;;;;;;5053800;28;20048;-81
2023/03/15 04:10:53;;;;;;;5.18;1.02;;;0.50;99.90;;;;;;4998165;28;20045;-81
2023/03/15 04:13:19;;;;;;;2.60;0.90;;;0.30;99.90;;;;;;5030368;28;20494;-81
2023/03/15 04:15:46;;;;;;;2.78;0.85;;;0.30;99.90;;;;;;5052589;28;20567;-81
2023/03/15 04:18:12;;;;;;;3.33;0.80;;;0.30;99.90;;;;;;5034681;28;20080;-81
2023/03/15 04:20:38;;;;;;;4.13;0.90;;;0.30;99.90;;;;;;5034146;28;20052;-81
2023/03/15 04:23:06;;;;;;;1.90;0.75;;;0.30;99.90;;;;;;5017372;28;20047;-81
2023/03/15 04:25:31;;;;;;;3.42;1.33;;;0.90;99.90;;;;;;5017529;28;20044;-81
2023/03/15 04:27:57;;;;;;;4.88;1.10;;;0.30;99.90;;;;;;5033569;28;20045;-80
2023/03/15 04:30:27;;;;;;;2.55;0.80;;;0.30;99.90;;;;;;5016995;28;20643;-81
2023/03/15 04:33:02;;;;;;;4.75;1.10;;;0.50;99.90;;;;;;5031580;28;20095;-81
2023/03/15 04:35:32;;;;;;;3.65;1.00;;;0.80;99.90;;;;;;5015503;28;20082;-81
2023/03/15 04:37:59;;;;;;;3.08;0.90;;;0.30;99.90;;;;;;5057173;28;20507;-81
2023/03/15 04:40:25;;;;;;;2.75;0.80;;;0.90;99.90;;;;;;5030435;28;20055;-81
2023/03/15 04:42:55;;;;;;;2.67;1.00;;;0.80;99.90;;;;;;5016728;28;20041;-81
2023/03/15 04:45:22;;;;;;;2.25;0.80;;;1.20;99.90;;;;;;5033311;28;20036;-81
2023/03/15 04:47:51;;;;;;;3.03;1.25;;;0.70;99.90;;;;;;5032763;28;20390;-81
2023/03/15 04:50:18;;;;;;;3.00;1.30;;;0.30;99.90;;;;;;5033757;28;20061;-81
2023/03/15 04:52:44;;;;;;;4.07;1.05;;;0.30;99.90;;;;;;5033471;28;20048;-81
2023/03/15 04:55:10;;;;;;;4.65;1.05;;;0.30;99.90;;;;;;5066609;28;20045;-81
2023/03/15 04:57:35;;;;;;;2.42;0.80;;;0.30;99.90;;;;;;5025891;28;20042;-81
2023/03/15 05:00:06;;;;;;;2.20;0.90;;;0.30;99.90;;;;;;5012210;28;20042;-80
2023/03/15 05:02:32;;;;;;;3.38;1.00;;;0.30;99.90;;;;;;5039418;28;20140;-81
2023/03/15 05:04:58;;;;;;;6.05;1.35;;;0.20;99.90;;;;;;5032844;28;20401;-81
2023/03/15 05:07:23;;;;;;;3.50;1.00;;;0.20;99.90;;;;;;5016316;28;20055;-80
2023/03/15 05:09:49;;;;;;;4.07;1.08;;;0.20;99.90;;;;;;5032762;28;20056;-81
2023/03/15 05:12:15;;;;;;;5.55;1.10;;;0.20;99.90;;;;;;5032906;28;20048;-81
2023/03/15 05:14:41;;;;;;;2.25;1.00;;;0.10;99.90;;;;;;5032898;28;20076;-81
2023/03/15 05:17:07;;;;;;;2.70;1.10;;;0.80;99.90;;;;;;5032829;28;20083;-81
2023/03/15 05:19:33;;;;;;;2.28;0.93;;;0.10;99.90;;;;;;5046776;28;20550;-81
2023/03/15 05:22:03;;;;;;;3.20;1.05;;;0.10;99.90;;;;;;5023594;28;20478;-81
2023/03/15 05:24:29;;;;;;;2.85;0.82;;;0.10;99.90;;;;;;5036340;28;20082;-81
2023/03/15 05:26:55;;;;;;;5.53;1.58;;;0.10;99.90;;;;;;5052400;28;20052;-80
2023/03/15 05:29:21;;;;;;;4.38;1.05;;;0.50;99.90;;;;;;5036008;28;20044;-80
2023/03/15 05:31:48;;;;;;;3.30;1.00;;;0.10;99.90;;;;;;5052379;28;20048;-81
2023/03/15 05:34:14;;;;;;;3.08;1.52;;;0.10;99.90;;;;;;5052705;28;20040;-81
2023/03/15 05:36:43;;;;;;;5.45;0.90;;;0.20;99.90;;;;;;5035998;28;20044;-81
2023/03/15 05:39:10;;;;;;;3.25;1.08;;;0.10;99.90;;;;;;5035467;28;20519;-81
2023/03/15 05:41:36;;;;;;;4.60;1.13;;;0.10;99.90;;;;;;5031938;28;20049;-81
2023/03/15 05:44:02;;;;;;;5.35;1.20;;;0.10;99.90;;;;;;5039243;28;20103;-81
2023/03/15 05:46:28;;;;;;;5.38;1.08;;;0.10;99.90;;;;;;5045245;28;20111;-81
2023/03/15 05:48:54;;;;;;;4.70;2.35;;;0.30;99.90;;;;;;5029472;28;20046;-81
2023/03/15 05:51:20;;;;;;;3.30;0.90;;;0.10;99.90;;;;;;5042082;28;20044;-82
2023/03/15 05:53:45;;;;;;;1.85;1.00;;;0.00;99.90;;;;;;5052507;28;20055;-81
2023/03/15 05:56:11;;;;;;;3.55;1.20;;;0.00;99.90;;;;;;5038061;28;20106;-81
2023/03/15 05:58:37;;;;;;;3.63;0.90;;;0.50;99.90;;;;;;5039050;28;20432;-81
2023/03/15 06:01:04;;;;;;;3.47;1.42;;;0.50;99.90;;;;;;5067648;28;20127;-81
2023/03/15 06:03:30;;;;;;;3.80;1.75;;;-0.10;99.90;;;;;;5069682;28;20048;-81
2023/03/15 06:06:00;;;;;;;3.72;1.00;;;0.50;99.90;;;;;;5053384;28;20052;-81
2023/03/15 06:08:26;;;;;;;2.83;0.93;;;0.30;99.90;;;;;;5019471;28;20047;-81
2023/03/15 06:10:51;;;;;;;5.40;1.95;;;0.60;99.90;;;;;;5071475;28;20048;-83
2023/03/15 06:13:17;;;;;;;2.35;1.10;;;0.20;99.90;;;;;;5023157;28;20370;-82
2023/03/15 06:15:46;;;;;;;1.92;0.70;;;0.30;99.90;;;;;;5019975;28;20045;-83
2023/03/15 06:18:12;;;;;;;3.67;0.82;;;0.40;99.90;;;;;;5038388;28;20049;-83
2023/03/15 06:20:39;;;;;;;3.30;1.20;;;0.80;99.90;;;;;;5055955;28;20044;-83
2023/03/15 06:23:05;;;;;;;3.33;0.85;;;0.50;99.90;;;;;;5005607;28;20072;-83
2023/03/15 06:25:31;;;;;;;4.00;1.00;;;0.60;99.90;;;;;;5022083;28;20067;-82
2023/03/15 06:27:56;;;;;;;4.45;1.08;;;0.70;99.90;;;;;;5055593;28;20489;-82
2023/03/15 06:30:22;;;;;;;1.92;0.82;;;0.50;99.90;;;;;;5039355;28;20048;-82
2023/03/15 06:32:48;;;;;;;3.13;1.10;;;0.50;99.90;;;;;;5068665;28;20101;-82
2023/03/15 06:35:14;;;;;;;5.25;1.27;;;0.50;99.90;;;;;;5055964;28;20381;-84
2023/03/15 06:37:40;;;;;;;2.83;0.80;;;0.80;99.90;;;;;;4994627;28;20072;-82
2023/03/15 06:40:07;;;;;;;4.13;0.90;;;0.80;99.90;;;;;;5031970;28;20055;-82
2023/03/15 06:42:33;;;;;;;3.47;0.90;;;0.50;99.90;;;;;;5071934;28;20099;-82
2023/03/15 06:45:00;;;;;;;4.82;1.20;;;0.50;99.90;;;;;;5006564;28;20080;-82
2023/03/15 06:47:25;;;;;;;2.40;0.93;;;0.40;99.90;;;;;;5037985;28;20052;-83
2023/03/15 06:49:51;;;;;;;2.95;1.23;;;0.50;99.90;;;;;;5038716;28;20425;-83
2023/03/15 06:52:17;;;;;;;4.72;1.00;;;0.50;99.90;;;;;;5055560;28;20055;-83
2023/03/15 06:54:43;;;;;;;4.93;1.63;;;0.50;99.90;;;;;;5038437;28;20133;-82
2023/03/15 06:57:09;;;;;;;2.85;0.80;;;1.30;99.90;;;;;;5015626;28;20097;-83
2023/03/15 06:59:35;;;;;;;2.80;0.98;;;0.60;99.90;;;;;;5015368;28;20045;-83
2023/03/15 07:02:00;;;;;;;2.20;0.80;;;0.70;99.90;;;;;;5015318;28;20045;-83
2023/03/15 07:04:26;;;;;;;3.60;1.15;;;0.70;99.90;;;;;;5034742;28;20049;-83
2023/03/15 07:06:52;;;;;;;2.85;0.93;;;0.80;99.90;;;;;;5051518;28;20074;-83
2023/03/15 07:09:18;;;;;;;2.58;0.80;;;1.50;99.90;;;;;;5034900;28;20052;-83
2023/03/15 07:11:44;;;;;;;4.43;2.22;;;1.30;99.90;;;;;;5034884;28;20040;-85
2023/03/15 07:14:09;;;;;;;2.80;0.90;;;1.40;99.90;;;;;;5030902;28;20140;-84
2023/03/15 07:16:35;;;;;;;4.70;1.23;;;1.50;99.90;;;;;;5042429;28;20052;-69
2023/03/15 07:19:01;;;;;;;4.57;0.85;;;2.10;99.90;;;;;;5039229;28;20198;-68
2023/03/15 07:21:27;;;;;;;3.80;1.10;;;1.30;99.90;;;;;;5030267;28;20110;-68
2023/03/15 07:23:53;;;;;;;3.17;1.20;;;1.70;99.90;;;;;;5053373;28;20055;-69
2023/03/15 07:26:19;;;;;;;3.28;0.85;;;1.40;99.90;;;;;;5046332;28;20485;-68
2023/03/15 07:28:45;;;;;;;2.95;0.90;;;1.50;99.90;;;;;;5033507;28;20043;-69
2023/03/15 07:31:11;;;;;;;3.00;0.95;;;2.20;99.90;;;;;;5031183;28;20060;-68
2023/03/15 07:33:37;;;;;;;1.70;0.80;;;1.60;99.90;;;;;;5068400;28;20065;-68
2023/03/15 07:36:07;;;;;;;1.75;0.75;;;1.70;99.90;;;;;;5072377;28;20098;-69
2023/03/15 07:38:34;;;;;;;1.30;0.80;;;1.80;99.90;;;;;;5059512;28;20037;-68
2023/03/15 07:41:04;;;;;;;3.58;0.93;;;1.90;99.90;;;;;;5067691;28;20088;-70
2023/03/15 07:43:30;;;;;;;3.67;0.85;;;2.00;99.90;;;;;;5052145;28;20037;-69
2023/03/15 07:45:56;;;;;;;2.67;1.05;;;2.00;99.90;;;;;;5033779;28;20049;-69
2023/03/15 07:48:22;;;;;;;2.70;0.93;;;2.30;99.90;;;;;;5052370;28;20355;-68
2023/03/15 07:50:47;;;;;;;3.03;0.90;;;2.20;99.90;;;;;;5052100;28;20386;-68
2023/03/15 07:53:13;;;;;;;3.70;1.33;;;2.40;99.90;;;;;;5051971;28;20124;-68
2023/03/15 07:55:39;;;;;;;3.95;1.00;;;2.30;99.90;;;;;;5034042;28;20060;-69
2023/03/15 07:58:05;;;;;;;4.13;1.10;;;2.40;99.90;;;;;;5051629;28;20124;-70
2023/03/15 08:00:31;;;;;;;2.05;0.95;;;2.70;99.90;;;;;;5051894;28;20053;-69
2023/03/15 08:02:57;;;;;;;2.72;0.77;;;2.60;99.90;;;;;;5034201;28;20159;-69
2023/03/15 08:05:23;;;;;;;2.67;0.75;;;2.60;99.90;;;;;;5051833;28;20048;-70
2023/03/15 08:07:50;;;;;;;3.35;1.15;;;2.80;99.90;;;;;;5051527;28;20059;-69
2023/03/15 08:10:17;;;;;;;4.00;1.42;;;2.80;99.90;;;;;;5051694;28;20080;-68
2023/03/15 08:12:43;;;;;;;3.38;0.73;;;2.90;99.90;;;;;;5027622;28;20041;-70
2023/03/15 08:15:13;;;;;;;4.78;1.00;;;3.00;99.90;;;;;;5046604;28;20064;-70
2023/03/15 08:17:40;;;;;;;3.53;1.00;;;3.20;99.90;;;;;;5040220;28;20729;-71
2023/03/15 08:20:10;;;;;;;6.53;1.15;;;3.10;99.90;;;;;;5032415;28;20106;-71
2023/03/15 08:22:37;;;;;;;2.78;0.80;;;3.20;99.90;;;;;;5026726;28;20098;-68
2023/03/15 08:25:03;;;;;;;1.65;0.90;;;3.50;99.90;;;;;;5015359;28;20045;-69
2023/03/15 08:27:29;;;;;;;4.18;0.80;;;3.40;99.90;;;;;;5049863;28;20429;-69
2023/03/15 08:29:54;;;;;;;4.05;1.52;;;3.50;99.90;;;;;;5050605;28;20124;-69
2023/03/15 08:32:20;;;;;;;2.45;0.88;;;3.60;99.90;;;;;;5050090;28;20144;-70
2023/03/15 08:34:46;;;;;;;2.13;0.77;;;3.70;99.90;;;;;;5020927;28;20489;-70
2023/03/15 08:37:12;;;;;;;2.92;0.90;;;3.80;99.90;;;;;;5050743;28;20052;-70
2023/03/15 08:39:38;;;;;;;4.38;1.00;;;3.90;99.90;;;;;;5033220;28;20052;-71
2023/03/15 08:42:04;;;;;;;4.05;1.33;;;3.90;99.90;;;;;;5050574;28;20182;-71
2023/03/15 08:44:30;;;;;;;3.15;1.20;;;4.00;99.90;;;;;;5050514;28;20048;-70
2023/03/15 08:46:56;;;;;;;3.63;1.10;;;4.30;99.90;;;;;;5031379;28;20057;-71
2023/03/15 08:49:22;;;;;;;5.53;1.20;;;4.20;99.90;;;;;;5028476;28;20231;-71
2023/03/15 08:51:47;;;;;;;2.70;1.08;;;4.30;99.90;;;;;;5049000;28;20490;-70
2023/03/15 08:54:13;;;;;;;3.50;0.88;;;4.40;99.90;;;;;;5049532;28;20060;-71
2023/03/15 08:56:40;;;;;;;3.55;1.38;;;4.50;99.90;;;;;;5031218;28;20481;-70
2023/03/15 08:59:06;;;;;;;3.70;1.20;;;4.50;99.90;;;;;;5047543;28;20053;-68
2023/03/15 09:01:33;;;;;;;5.07;1.25;;;4.60;99.90;;;;;;5023818;28;20053;-69
2023/03/15 09:04:00;;;;;;;2.88;1.00;;;4.70;99.90;;;;;;5030771;28;20175;-69
2023/03/15 09:06:26;;;;;;;6.57;1.30;;;4.80;99.90;;;;;;5030647;28;20053;-69
2023/03/15 09:08:52;;;;;;;7.95;1.92;;;4.90;99.90;;;;;;5032679;28;20037;-69
2023/03/15 09:11:19;;;;;;;2.63;1.17;;;4.90;99.90;;;;;;5050149;28;20088;-70
2023/03/15 09:13:44;;;;;;;3.13;1.60;;;4.90;99.90;;;;;;5050434;28;20498;-70
2023/03/15 09:16:10;;;;;;;4.75;1.20;;;5.00;99.90;;;;;;5015714;28;20063;-70
2023/03/15 09:18:36;;;;;;;2.50;1.05;;;5.00;99.90;;;;;;5049963;28;20063;-70
2023/03/15 09:21:01;;;;;;;4.43;1.10;;;5.10;99.90;;;;;;5048570;28;20091;-71
2023/03/15 09:23:27;;;;;;;3.35;1.20;;;5.10;99.90;;;;;;5031903;28;20510;-71
2023/03/15 09:25:53;;;;;;;2.55;1.00;;;5.20;99.90;;;;;;5050408;28;20053;-70
2023/03/15 09:28:19;;;;;;;4.55;1.40;;;5.30;99.90;;;;;;5049637;28;20045;-70
2023/03/15 09:30:44;;;;;;;3.63;0.98;;;5.40;99.90;;;;;;5032466;28;20092;-71
2023/03/15 09:33:13;;;;;;;3.10;1.10;;;5.60;99.90;;;;;;5050411;28;20084;-72
2023/03/15 09:35:40;;;;;;;3.28;1.08;;;5.60;99.90;;;;;;5049704;28;20497;-71
2023/03/15 09:38:06;;;;;;;2.97;1.20;;;5.80;99.90;;;;;;5032786;28;20457;-71
2023/03/15 09:40:37;;;;;;;3.72;0.88;;;5.90;99.90;;;;;;5049892;28;20119;-71
2023/03/15 09:43:31;;;;;;;2.05;1.20;;;5.90;99.90;;;;;;5050023;28;20052;-70
2023/03/15 09:46:04;;;;;;;2.53;0.85;;;6.00;99.90;;;;;;5034380;28;20060;-72
2023/03/15 09:48:36;;;;;;;2.03;0.75;;;5.60;99.90;;;;;;5053962;28;20076;-71
2023/03/15 09:51:16;;;;;;;2.83;1.00;;;5.40;99.90;;;;;;5036356;28;20135;-71
2023/03/15 09:53:59;;;;;;;5.10;0.90;;;5.50;99.90;;;;;;5053964;28;20033;-70
2023/03/15 09:56:35;;;;;;;1.77;0.70;;;5.70;99.90;;;;;;5053527;28;20045;-71
2023/03/15 09:59:02;;;;;;;2.70;0.82;;;5.90;99.90;;;;;;5036275;28;20072;-70
2023/03/15 10:01:40;;;;;;;2.20;1.13;;;6.00;99.90;;;;;;5035799;28;20045;-69
2023/03/15 10:04:26;;;;;;;1.85;0.80;;;6.00;99.90;;;;;;5036022;28;20055;-71
2023/03/15 10:06:58;;;;;;;5.18;1.52;;;6.30;99.90;;;;;;5036197;28;20045;-68
2023/03/15 10:09:26;;;;;;;3.25;0.88;;;6.50;99.90;;;;;;5053823;28;20045;-69
2023/03/15 10:12:05;;;;;;;2.80;0.82;;;6.70;99.90;;;;;;5053498;28;20500;-69
2023/03/15 10:14:46;;;;;;;2.95;0.80;;;6.70;99.90;;;;;;5054042;28;20064;-71
2023/03/15 10:17:47;;;;;;;2.50;1.42;;;6.50;99.90;;;;;;5053088;28;20053;-71
2023/03/15 10:20:26;;;;;;;2.08;0.77;;;6.30;99.90;;;;;;5013455;28;20072;-70
2023/03/15 10:23:05;;;;;;;4.15;1.00;;;6.60;99.90;;;;;;5053348;28;20045;-70
2023/03/15 10:25:33;;;;;;;2.85;0.80;;;6.90;99.90;;;;;;5053379;28;20367;-70
2023/03/15 10:28:07;;;;;;;1.55;0.63;;;7.10;99.90;;;;;;5053372;28;20041;-69
2023/03/15 10:30:35;;;;;;;4.15;0.70;;;7.00;99.90;;;;;;5038030;28;20549;-68
2023/03/15 10:33:04;;;;;;;2.92;0.90;;;6.80;99.90;;;;;;5052554;28;20654;-70
2023/03/15 10:35:30;;;;;;;2.42;1.08;;;7.10;99.90;;;;;;5053097;28;20084;-69
2023/03/15 10:37:57;;;;;;;2.40;0.70;;;7.40;99.90;;;;;;5035839;28;20059;-69
2023/03/15 10:40:52;;;;;;;2.35;0.73;;;7.50;99.90;;;;;;5052862;28;20879;-69
2023/03/15 10:43:23;;;;;;;6.55;0.90;;;7.50;99.90;;;;;;5053623;28;20057;-69
2023/03/15 10:46:05;;;;;;;2.20;0.68;;;7.50;99.90;;;;;;5052213;28;20551;-69
2023/03/15 10:48:40;;;;;;;2.67;0.73;;;7.40;99.90;;;;;;5034763;28;20059;-69
2023/03/15 10:51:24;;;;;;;3.88;0.93;;;7.60;99.90;;;;;;5053199;28;20382;-68
2023/03/15 10:54:17;;;;;;;4.07;0.90;;;7.80;99.90;;;;;;5052175;28;20113;-68
2023/03/15 10:56:50;;;;;;;1.92;0.70;;;7.90;99.90;;;;;;5052672;28;20055;-68
2023/03/15 10:59:23;;;;;;;2.58;0.85;;;8.00;99.90;;;;;;5053094;28;20048;-69
2023/03/15 11:01:52;;;;;;;2.30;0.80;;;8.00;99.90;;;;;;5035126;28;20049;-70
2023/03/15 11:04:30;;;;;;;3.60;1.63;;;7.90;99.90;;;;;;5052629;28;20060;-68
2023/03/15 11:06:55;;;;;;;4.28;0.90;;;7.90;99.90;;;;;;5032060;28;20407;-69
2023/03/15 11:09:24;;;;;;;1.98;0.98;;;8.10;99.90;;;;;;5049109;28;20045;-69
2023/03/15 11:11:53;;;;;;;2.88;0.80;;;8.10;99.90;;;;;;5055647;28;20098;-69
2023/03/15 11:14:20;;;;;;;2.53;0.73;;;8.10;99.90;;;;;;5034160;28;20041;-68
2023/03/15 11:16:51;;;;;;;2.25;0.90;;;8.30;99.90;;;;;;5051700;28;20102;-70
2023/03/15 11:19:21;;;;;;;5.85;1.10;;;8.30;99.90;;;;;;5052301;28;20060;-68
2023/03/15 11:21:49;;;;;;;5.68;1.17;;;8.20;99.90;;;;;;5052602;28;20098;-69
2023/03/15 11:24:27;;;;;;;4.28;1.20;;;8.20;99.90;;;;;;5052728;28;20045;-69
2023/03/15 11:26:56;;;;;;;2.92;0.93;;;8.20;99.90;;;;;;5034510;28;20055;-69
2023/03/15 11:29:26;;;;;;;3.08;0.70;;;8.30;99.90;;;;;;5034359;28;20052;-69
2023/03/15 11:31:52;;;;;;;1.70;0.65;;;8.20;99.90;;;;;;5034683;28;20044;-68
2023/03/15 11:34:26;;;;;;;3.15;0.77;;;8.20;99.90;;;;;;5052083;28;20175;-69
2023/03/15 11:36:59;;;;;;;2.00;1.02;;;8.40;99.90;;;;;;5034416;28;20048;-69
2023/03/15 11:39:44;;;;;;;4.18;1.05;;;8.30;99.90;;;;;;5052192;28;20045;-69
2023/03/15 11:42:15;;;;;;;1.13;0.60;;;8.40;99.90;;;;;;5035058;28;20059;-69
2023/03/15 11:44:51;;;;;;;4.50;0.82;;;8.30;99.90;;;;;;5045577;28;20069;-68
2023/03/15 11:47:42;;;;;;;3.08;0.80;;;8.50;99.90;;;;;;5049843;28;20053;-68
2023/03/15 11:50:13;;;;;;;6.65;0.98;;;8.70;99.90;;;;;;5026263;28;20087;-69
2023/03/15 11:52:40;;;;;;;2.47;0.75;;;8.50;99.90;;;;;;5033898;28;20057;-72
2023/03/15 11:55:06;;;;;;;2.47;0.55;;;8.50;99.90;;;;;;5026009;28;20550;-69
2023/03/15 11:57:49;;;;;;;2.65;0.80;;;8.40;99.90;;;;;;5034453;28;20084;-68
2023/03/15 12:00:33;;;;;;;1.65;0.68;;;8.30;99.90;;;;;;5051010;28;20052;-68
2023/03/15 12:03:24;;;;;;;3.75;0.80;;;8.40;99.90;;;;;;5034280;28;20045;-68
2023/03/15 12:06:00;;;;;;;4.63;1.00;;;8.30;99.90;;;;;;5051876;28;20048;-68
2023/03/15 12:08:35;;;;;;;3.85;0.98;;;8.50;99.90;;;;;;5033402;28;20136;-70
2023/03/15 12:11:08;;;;;;;3.38;1.00;;;8.70;99.90;;;;;;5051530;28;20049;-70
2023/03/15 12:13:34;;;;;;;2.40;0.80;;;8.50;99.90;;;;;;5018973;28;20095;-70
2023/03/15 12:16:00;;;;;;;3.35;0.75;;;8.50;99.90;;;;;;5051326;28;20092;-70
2023/03/15 12:18:37;;;;;;;3.03;0.80;;;8.30;99.90;;;;;;5017061;28;20490;-70
2023/03/15 12:21:07;;;;;;;3.13;0.80;;;8.30;99.90;;;;;;5051592;28;20478;-70
2023/03/15 12:23:43;;;;;;;1.98;0.65;;;8.20;99.90;;;;;;5033494;28;20048;-70
2023/03/15 12:26:25;;;;;;;3.28;1.00;;;8.20;99.90;;;;;;5047473;28;20044;-71
2023/03/15 12:28:59;;;;;;;3.42;0.70;;;8.30;99.90;;;;;;5051431;28;20124;-70
2023/03/15 12:31:25;;;;;;;2.92;0.90;;;8.30;99.90;;;;;;5050072;28;20049;-71
2023/03/15 12:33:57;;;;;;;1.90;0.60;;;8.40;99.90;;;;;;5033676;28;20047;-68
2023/03/15 12:36:30;;;;;;;2.90;0.90;;;8.50;99.90;;;;;;5051424;28;20371;-70
2023/03/15 12:39:13;;;;;;;1.88;0.80;;;8.70;99.90;;;;;;5050177;28;20136;-71
2023/03/15 12:41:42;;;;;;;3.35;0.73;;;8.90;99.90;;;;;;5050124;28;20045;-70
2023/03/15 12:44:30;;;;;;;1.98;0.70;;;9.10;99.90;;;;;;5033016;28;20111;-71
2023/03/15 12:47:04;;;;;;;2.65;0.80;;;9.50;99.90;;;;;;5032454;28;20096;-72
2023/03/15 12:49:41;;;;;;;2.47;0.85;;;10.00;99.90;;;;;;5033024;28;20033;-68
2023/03/15 12:52:10;;;;;;;2.88;0.82;;;10.40;99.90;;;;;;5033338;28;20056;-71
2023/03/15 12:54:58;;;;;;;1.40;0.50;;;10.60;99.90;;;;;;5050032;28;20060;-70
2023/03/15 12:57:29;;;;;;;3.67;0.90;;;10.80;99.90;;;;;;5049969;28;20045;-72
2023/03/15 13:00:00;;;;;;;2.95;1.15;;;11.10;99.90;;;;;;5050355;28;20485;-71
2023/03/15 13:02:32;;;;;;;2.92;0.60;;;11.10;99.90;;;;;;5033055;28;20458;-72
2023/03/15 13:05:02;;;;;;;4.10;1.00;;;11.00;99.90;;;;;;5050825;28;20109;-71
2023/03/15 13:07:46;;;;;;;2.60;0.70;;;11.20;99.90;;;;;;5050562;28;20145;-72
2023/03/15 13:10:54;;;;;;;2.28;0.57;;;11.00;99.90;;;;;;5051017;28;20037;-71